sensor_id;sensor_type;location;lat;lon;timestamp;P1;durP1;ratioP1;P2;durP2;ratioP2
68256;SDS011;55069;51.568;4.656;2023-06-26T00:00:27;8.20;;;5.00;;
68256;SDS011;55069;51.568;4.656;2023-06-26T00:02:52;6.63;;;4.40;;
68256;SDS011;55069;51.568;4.656;2023-06-26T00:05:18;11.57;;;4.43;;
68256;SDS011;55069;51.568;4.656;2023-06-26T00:07:44;7.28;;;4.70;;
68256;SDS011;55069;51.568;4.656;2023-06-26T00:10:09;8.80;;;4.37;;
68256;SDS011;55069;51.568;4.656;2023-06-26T00:12:35;7.55;;;4.18;;
68256;SDS011;55069;51.568;4.656;2023-06-26T00:15:01;9.30;;;4.70;;
68256;SDS011;55069;51.568;4.656;2023-06-26T00:17:26;9.43;;;4.68;;
68256;SDS011;55069;51.568;4.656;2023-06-26T00:19:52;7.37;;;4.40;;
68256;SDS011;55069;51.568;4.656;2023-06-26T00:22:18;7.72;;;5.07;;
68256;SDS011;55069;51.568;4.656;2023-06-26T00:24:44;8.03;;;4.47;;
68256;SDS011;55069;51.568;4.656;2023-06-26T00:27:12;8.40;;;4.22;;
68256;SDS011;55069;51.568;4.656;2023-06-26T00:29:38;6.85;;;4.68;;
68256;SDS011;55069;51.568;4.656;2023-06-26T00:32:04;9.20;;;4.67;;
68256;SDS011;55069;51.568;4.656;2023-06-26T00:34:32;6.63;;;4.13;;
68256;SDS011;55069;51.568;4.656;2023-06-26T00:36:58;8.53;;;4.17;;
68256;SDS011;55069;51.568;4.656;2023-06-26T00:39:25;10.68;;;4.95;;
68256;SDS011;55069;51.568;4.656;2023-06-26T00:41:51;8.13;;;4.45;;
68256;SDS011;55069;51.568;4.656;2023-06-26T00:44:19;8.95;;;4.43;;
68256;SDS011;55069;51.568;4.656;2023-06-26T00:46:44;7.33;;;4.90;;
68256;SDS011;55069;51.568;4.656;2023-06-26T00:49:11;8.27;;;4.30;;
68256;SDS011;55069;51.568;4.656;2023-06-26T00:51:36;8.13;;;4.40;;
68256;SDS011;55069;51.568;4.656;2023-06-26T00:54:02;8.90;;;4.30;;
68256;SDS011;55069;51.568;4.656;2023-06-26T00:56:27;8.37;;;4.00;;
68256;SDS011;55069;51.568;4.656;2023-06-26T00:58:54;7.22;;;3.78;;
68256;SDS011;55069;51.568;4.656;2023-06-26T01:01:20;8.03;;;4.03;;
68256;SDS011;55069;51.568;4.656;2023-06-26T01:03:49;7.57;;;3.53;;
68256;SDS011;55069;51.568;4.656;2023-06-26T01:06:19;9.60;;;3.38;;
68256;SDS011;55069;51.568;4.656;2023-06-26T01:08:46;8.75;;;3.20;;
68256;SDS011;55069;51.568;4.656;2023-06-26T01:11:13;11.43;;;3.70;;
68256;SDS011;55069;51.568;4.656;2023-06-26T01:13:40;7.72;;;3.65;;
68256;SDS011;55069;51.568;4.656;2023-06-26T01:16:09;8.90;;;3.88;;
68256;SDS011;55069;51.568;4.656;2023-06-26T01:18:35;7.63;;;3.50;;
68256;SDS011;55069;51.568;4.656;2023-06-26T01:21:07;10.73;;;3.97;;
68256;SDS011;55069;51.568;4.656;2023-06-26T01:26:19;13.40;;;3.45;;
68256;SDS011;55069;51.568;4.656;2023-06-26T01:28:45;10.82;;;3.40;;
68256;SDS011;55069;51.568;4.656;2023-06-26T01:31:12;9.10;;;3.38;;
68256;SDS011;55069;51.568;4.656;2023-06-26T01:33:39;10.27;;;3.80;;
68256;SDS011;55069;51.568;4.656;2023-06-26T01:36:06;8.33;;;3.70;;
68256;SDS011;55069;51.568;4.656;2023-06-26T01:38:34;10.75;;;3.85;;
68256;SDS011;55069;51.568;4.656;2023-06-26T01:41:00;10.88;;;4.18;;
68256;SDS011;55069;51.568;4.656;2023-06-26T01:51:22;7.85;;;3.97;;
68256;SDS011;55069;51.568;4.656;2023-06-26T01:53:55;7.95;;;3.63;;
68256;SDS011;55069;51.568;4.656;2023-06-26T01:56:22;11.20;;;4.10;;
68256;SDS011;55069;51.568;4.656;2023-06-26T01:58:50;9.75;;;3.78;;
68256;SDS011;55069;51.568;4.656;2023-06-26T02:01:20;12.13;;;3.58;;
68256;SDS011;55069;51.568;4.656;2023-06-26T02:03:46;8.95;;;3.95;;
68256;SDS011;55069;51.568;4.656;2023-06-26T02:06:11;8.60;;;3.67;;
68256;SDS011;55069;51.568;4.656;2023-06-26T02:08:37;10.50;;;3.70;;
68256;SDS011;55069;51.568;4.656;2023-06-26T02:11:03;13.10;;;3.93;;
68256;SDS011;55069;51.568;4.656;2023-06-26T02:13:28;10.00;;;4.47;;
68256;SDS011;55069;51.568;4.656;2023-06-26T02:15:54;13.53;;;4.20;;
68256;SDS011;55069;51.568;4.656;2023-06-26T02:18:20;20.90;;;4.40;;
68256;SDS011;55069;51.568;4.656;2023-06-26T02:20:49;12.35;;;4.57;;
68256;SDS011;55069;51.568;4.656;2023-06-26T02:23:15;16.08;;;4.57;;
68256;SDS011;55069;51.568;4.656;2023-06-26T02:25:41;17.37;;;4.70;;
68256;SDS011;55069;51.568;4.656;2023-06-26T02:28:08;19.33;;;4.85;;
68256;SDS011;55069;51.568;4.656;2023-06-26T02:30:35;19.15;;;5.47;;
68256;SDS011;55069;51.568;4.656;2023-06-26T02:33:00;14.27;;;5.27;;
68256;SDS011;55069;51.568;4.656;2023-06-26T02:35:26;19.33;;;5.55;;
68256;SDS011;55069;51.568;4.656;2023-06-26T02:37:52;25.37;;;5.20;;
68256;SDS011;55069;51.568;4.656;2023-06-26T02:40:17;15.02;;;4.65;;
68256;SDS011;55069;51.568;4.656;2023-06-26T02:42:43;18.73;;;5.23;;
68256;SDS011;55069;51.568;4.656;2023-06-26T02:45:09;14.63;;;4.90;;
68256;SDS011;55069;51.568;4.656;2023-06-26T02:47:34;15.48;;;5.00;;
68256;SDS011;55069;51.568;4.656;2023-06-26T02:50:02;18.42;;;5.25;;
68256;SDS011;55069;51.568;4.656;2023-06-26T02:52:39;17.80;;;5.40;;
68256;SDS011;55069;51.568;4.656;2023-06-26T02:55:05;15.03;;;4.63;;
68256;SDS011;55069;51.568;4.656;2023-06-26T02:57:31;19.13;;;5.45;;
68256;SDS011;55069;51.568;4.656;2023-06-26T02:59:57;17.20;;;5.20;;
68256;SDS011;55069;51.568;4.656;2023-06-26T03:02:22;24.15;;;6.47;;
68256;SDS011;55069;51.568;4.656;2023-06-26T03:04:48;22.02;;;5.45;;
68256;SDS011;55069;51.568;4.656;2023-06-26T03:07:15;24.10;;;5.17;;
68256;SDS011;55069;51.568;4.656;2023-06-26T03:09:41;15.75;;;5.65;;
68256;SDS011;55069;51.568;4.656;2023-06-26T03:12:07;18.52;;;5.95;;
68256;SDS011;55069;51.568;4.656;2023-06-26T03:14:34;13.75;;;4.85;;
68256;SDS011;55069;51.568;4.656;2023-06-26T03:17:00;16.33;;;4.50;;
68256;SDS011;55069;51.568;4.656;2023-06-26T03:19:29;15.75;;;4.78;;
68256;SDS011;55069;51.568;4.656;2023-06-26T03:22:18;21.98;;;5.25;;
68256;SDS011;55069;51.568;4.656;2023-06-26T03:24:44;19.57;;;5.13;;
68256;SDS011;55069;51.568;4.656;2023-06-26T03:27:11;15.45;;;4.05;;
68256;SDS011;55069;51.568;4.656;2023-06-26T03:29:37;14.55;;;5.10;;
68256;SDS011;55069;51.568;4.656;2023-06-26T03:32:03;18.67;;;4.63;;
68256;SDS011;55069;51.568;4.656;2023-06-26T03:34:29;16.33;;;5.10;;
68256;SDS011;55069;51.568;4.656;2023-06-26T03:36:55;16.95;;;5.10;;
68256;SDS011;55069;51.568;4.656;2023-06-26T03:39:21;16.70;;;4.82;;
68256;SDS011;55069;51.568;4.656;2023-06-26T03:41:47;16.30;;;4.63;;
68256;SDS011;55069;51.568;4.656;2023-06-26T03:44:13;13.93;;;3.95;;
68256;SDS011;55069;51.568;4.656;2023-06-26T03:46:46;18.13;;;4.70;;
68256;SDS011;55069;51.568;4.656;2023-06-26T03:49:12;18.88;;;4.47;;
68256;SDS011;55069;51.568;4.656;2023-06-26T03:51:38;18.58;;;4.30;;
68256;SDS011;55069;51.568;4.656;2023-06-26T03:54:04;14.98;;;3.83;;
68256;SDS011;55069;51.568;4.656;2023-06-26T03:56:29;18.85;;;4.43;;
68256;SDS011;55069;51.568;4.656;2023-06-26T03:58:55;16.27;;;4.63;;
68256;SDS011;55069;51.568;4.656;2023-06-26T04:01:21;16.52;;;3.95;;
68256;SDS011;55069;51.568;4.656;2023-06-26T04:03:48;17.02;;;4.05;;
68256;SDS011;55069;51.568;4.656;2023-06-26T04:06:13;14.60;;;4.03;;
68256;SDS011;55069;51.568;4.656;2023-06-26T04:08:39;12.95;;;3.78;;
68256;SDS011;55069;51.568;4.656;2023-06-26T04:11:05;14.88;;;3.80;;
68256;SDS011;55069;51.568;4.656;2023-06-26T04:13:30;19.70;;;4.63;;
68256;SDS011;55069;51.568;4.656;2023-06-26T04:15:56;15.55;;;3.92;;
68256;SDS011;55069;51.568;4.656;2023-06-26T04:18:21;17.73;;;4.37;;
68256;SDS011;55069;51.568;4.656;2023-06-26T04:23:33;21.25;;;4.55;;
68256;SDS011;55069;51.568;4.656;2023-06-26T04:25:59;13.90;;;3.67;;
68256;SDS011;55069;51.568;4.656;2023-06-26T04:28:25;13.80;;;3.50;;
68256;SDS011;55069;51.568;4.656;2023-06-26T04:30:50;19.38;;;4.47;;
68256;SDS011;55069;51.568;4.656;2023-06-26T04:33:16;13.20;;;3.77;;
68256;SDS011;55069;51.568;4.656;2023-06-26T04:35:42;16.38;;;3.72;;
68256;SDS011;55069;51.568;4.656;2023-06-26T04:38:10;19.87;;;3.50;;
68256;SDS011;55069;51.568;4.656;2023-06-26T04:40:36;15.07;;;4.10;;
68256;SDS011;55069;51.568;4.656;2023-06-26T04:43:02;13.23;;;3.22;;
68256;SDS011;55069;51.568;4.656;2023-06-26T04:45:28;15.93;;;3.75;;
68256;SDS011;55069;51.568;4.656;2023-06-26T04:47:54;15.30;;;3.97;;
68256;SDS011;55069;51.568;4.656;2023-06-26T04:50:19;16.90;;;3.22;;
68256;SDS011;55069;51.568;4.656;2023-06-26T04:52:45;15.87;;;3.73;;
68256;SDS011;55069;51.568;4.656;2023-06-26T04:55:11;14.40;;;3.53;;
68256;SDS011;55069;51.568;4.656;2023-06-26T04:57:36;12.80;;;2.80;;
68256;SDS011;55069;51.568;4.656;2023-06-26T05:00:02;11.13;;;3.40;;
68256;SDS011;55069;51.568;4.656;2023-06-26T05:02:32;12.35;;;3.00;;
68256;SDS011;55069;51.568;4.656;2023-06-26T05:04:58;15.02;;;3.17;;
68256;SDS011;55069;51.568;4.656;2023-06-26T05:07:24;12.73;;;2.83;;
68256;SDS011;55069;51.568;4.656;2023-06-26T05:09:49;12.97;;;3.47;;
68256;SDS011;55069;51.568;4.656;2023-06-26T05:12:15;17.15;;;3.17;;
68256;SDS011;55069;51.568;4.656;2023-06-26T05:14:41;14.77;;;3.40;;
68256;SDS011;55069;51.568;4.656;2023-06-26T05:17:06;12.43;;;3.13;;
68256;SDS011;55069;51.568;4.656;2023-06-26T05:19:32;14.13;;;2.80;;
68256;SDS011;55069;51.568;4.656;2023-06-26T05:21:58;10.32;;;2.45;;
68256;SDS011;55069;51.568;4.656;2023-06-26T05:24:26;10.37;;;2.17;;
68256;SDS011;55069;51.568;4.656;2023-06-26T05:26:52;5.75;;;1.80;;
68256;SDS011;55069;51.568;4.656;2023-06-26T05:29:18;9.40;;;2.00;;
68256;SDS011;55069;51.568;4.656;2023-06-26T05:31:44;7.63;;;3.10;;
68256;SDS011;55069;51.568;4.656;2023-06-26T05:34:12;7.17;;;1.80;;
68256;SDS011;55069;51.568;4.656;2023-06-26T05:36:39;9.30;;;1.90;;
68256;SDS011;55069;51.568;4.656;2023-06-26T05:39:07;12.07;;;2.08;;
68256;SDS011;55069;51.568;4.656;2023-06-26T05:41:33;6.03;;;1.77;;
68256;SDS011;55069;51.568;4.656;2023-06-26T05:43:59;10.77;;;1.30;;
68256;SDS011;55069;51.568;4.656;2023-06-26T05:46:25;6.40;;;1.30;;
68256;SDS011;55069;51.568;4.656;2023-06-26T05:48:50;7.00;;;1.73;;
68256;SDS011;55069;51.568;4.656;2023-06-26T05:51:16;8.40;;;1.60;;
68256;SDS011;55069;51.568;4.656;2023-06-26T05:53:42;6.33;;;1.47;;
68256;SDS011;55069;51.568;4.656;2023-06-26T05:56:08;7.82;;;1.55;;
68256;SDS011;55069;51.568;4.656;2023-06-26T05:58:35;5.63;;;1.58;;
68256;SDS011;55069;51.568;4.656;2023-06-26T06:01:01;6.05;;;1.30;;
68256;SDS011;55069;51.568;4.656;2023-06-26T06:03:26;5.90;;;1.30;;
68256;SDS011;55069;51.568;4.656;2023-06-26T06:05:52;6.47;;;1.50;;
68256;SDS011;55069;51.568;4.656;2023-06-26T06:08:18;4.13;;;1.27;;
68256;SDS011;55069;51.568;4.656;2023-06-26T06:10:43;5.72;;;1.20;;
68256;SDS011;55069;51.568;4.656;2023-06-26T06:13:09;6.13;;;1.33;;
68256;SDS011;55069;51.568;4.656;2023-06-26T06:15:35;6.00;;;1.10;;
68256;SDS011;55069;51.568;4.656;2023-06-26T06:18:00;10.20;;;1.48;;
68256;SDS011;55069;51.568;4.656;2023-06-26T06:20:26;8.30;;;1.20;;
68256;SDS011;55069;51.568;4.656;2023-06-26T06:22:52;4.97;;;1.30;;
68256;SDS011;55069;51.568;4.656;2023-06-26T06:25:17;7.22;;;1.33;;
68256;SDS011;55069;51.568;4.656;2023-06-26T06:27:44;7.65;;;1.27;;
68256;SDS011;55069;51.568;4.656;2023-06-26T06:30:10;7.22;;;1.48;;
68256;SDS011;55069;51.568;4.656;2023-06-26T06:32:36;6.28;;;1.40;;
68256;SDS011;55069;51.568;4.656;2023-06-26T06:35:02;6.20;;;1.30;;
68256;SDS011;55069;51.568;4.656;2023-06-26T06:37:34;4.20;;;1.20;;
68256;SDS011;55069;51.568;4.656;2023-06-26T06:40:01;5.50;;;1.30;;
68256;SDS011;55069;51.568;4.656;2023-06-26T06:42:28;4.63;;;1.55;;
68256;SDS011;55069;51.568;4.656;2023-06-26T06:44:55;11.43;;;1.43;;
68256;SDS011;55069;51.568;4.656;2023-06-26T06:47:20;5.85;;;1.27;;
68256;SDS011;55069;51.568;4.656;2023-06-26T06:49:46;8.17;;;1.30;;
68256;SDS011;55069;51.568;4.656;2023-06-26T06:52:12;4.55;;;1.10;;
68256;SDS011;55069;51.568;4.656;2023-06-26T06:54:56;4.23;;;1.07;;
68256;SDS011;55069;51.568;4.656;2023-06-26T06:57:30;6.60;;;1.20;;
68256;SDS011;55069;51.568;4.656;2023-06-26T07:00:04;3.85;;;1.33;;
68256;SDS011;55069;51.568;4.656;2023-06-26T07:02:32;4.13;;;1.20;;
68256;SDS011;55069;51.568;4.656;2023-06-26T07:04:58;3.80;;;1.13;;
68256;SDS011;55069;51.568;4.656;2023-06-26T07:07:27;7.07;;;1.50;;
68256;SDS011;55069;51.568;4.656;2023-06-26T07:09:54;7.70;;;1.20;;
68256;SDS011;55069;51.568;4.656;2023-06-26T07:12:20;11.43;;;1.10;;
68256;SDS011;55069;51.568;4.656;2023-06-26T07:14:45;5.27;;;1.10;;
68256;SDS011;55069;51.568;4.656;2023-06-26T07:17:11;5.30;;;1.25;;
68256;SDS011;55069;51.568;4.656;2023-06-26T07:19:37;4.90;;;1.20;;
68256;SDS011;55069;51.568;4.656;2023-06-26T07:22:02;7.40;;;1.47;;
68256;SDS011;55069;51.568;4.656;2023-06-26T07:24:28;5.82;;;1.30;;
68256;SDS011;55069;51.568;4.656;2023-06-26T07:26:54;7.13;;;1.30;;
68256;SDS011;55069;51.568;4.656;2023-06-26T07:29:19;3.90;;;1.50;;
68256;SDS011;55069;51.568;4.656;2023-06-26T07:31:45;9.10;;;1.57;;
68256;SDS011;55069;51.568;4.656;2023-06-26T07:34:10;4.30;;;1.10;;
68256;SDS011;55069;51.568;4.656;2023-06-26T07:36:36;5.32;;;1.10;;
68256;SDS011;55069;51.568;4.656;2023-06-26T07:39:02;5.03;;;1.20;;
68256;SDS011;55069;51.568;4.656;2023-06-26T07:41:27;6.75;;;1.15;;
68256;SDS011;55069;51.568;4.656;2023-06-26T07:43:55;2.63;;;0.95;;
68256;SDS011;55069;51.568;4.656;2023-06-26T07:46:22;5.63;;;1.13;;
68256;SDS011;55069;51.568;4.656;2023-06-26T07:48:47;4.18;;;1.13;;
68256;SDS011;55069;51.568;4.656;2023-06-26T07:51:13;5.73;;;1.10;;
68256;SDS011;55069;51.568;4.656;2023-06-26T07:53:38;9.27;;;1.10;;
68256;SDS011;55069;51.568;4.656;2023-06-26T07:56:04;4.37;;;0.83;;
68256;SDS011;55069;51.568;4.656;2023-06-26T07:58:30;6.90;;;1.10;;
68256;SDS011;55069;51.568;4.656;2023-06-26T08:00:55;6.53;;;1.20;;
68256;SDS011;55069;51.568;4.656;2023-06-26T08:03:21;5.57;;;1.13;;
68256;SDS011;55069;51.568;4.656;2023-06-26T08:05:46;3.80;;;1.02;;
68256;SDS011;55069;51.568;4.656;2023-06-26T08:08:12;4.60;;;1.13;;
68256;SDS011;55069;51.568;4.656;2023-06-26T08:10:38;16.33;;;1.20;;
68256;SDS011;55069;51.568;4.656;2023-06-26T08:13:03;3.50;;;0.90;;
68256;SDS011;55069;51.568;4.656;2023-06-26T08:15:29;6.33;;;1.10;;
68256;SDS011;55069;51.568;4.656;2023-06-26T08:17:54;4.07;;;1.23;;
68256;SDS011;55069;51.568;4.656;2023-06-26T08:20:20;5.67;;;1.10;;
68256;SDS011;55069;51.568;4.656;2023-06-26T08:22:47;5.97;;;1.30;;
68256;SDS011;55069;51.568;4.656;2023-06-26T08:25:15;2.42;;;1.00;;
68256;SDS011;55069;51.568;4.656;2023-06-26T08:27:41;3.23;;;1.00;;
68256;SDS011;55069;51.568;4.656;2023-06-26T08:30:07;4.47;;;1.00;;
68256;SDS011;55069;51.568;4.656;2023-06-26T08:32:33;2.63;;;0.70;;
68256;SDS011;55069;51.568;4.656;2023-06-26T08:34:59;3.47;;;0.80;;
68256;SDS011;55069;51.568;4.656;2023-06-26T08:37:24;3.77;;;0.90;;
68256;SDS011;55069;51.568;4.656;2023-06-26T08:39:50;4.38;;;0.60;;
68256;SDS011;55069;51.568;4.656;2023-06-26T08:42:16;8.10;;;0.93;;
68256;SDS011;55069;51.568;4.656;2023-06-26T08:44:42;4.72;;;0.77;;
68256;SDS011;55069;51.568;4.656;2023-06-26T08:47:07;3.58;;;0.80;;
68256;SDS011;55069;51.568;4.656;2023-06-26T08:52:17;2.80;;;0.85;;
68256;SDS011;55069;51.568;4.656;2023-06-26T08:54:49;5.32;;;1.10;;
68256;SDS011;55069;51.568;4.656;2023-06-26T08:57:20;2.67;;;1.00;;
68256;SDS011;55069;51.568;4.656;2023-06-26T08:59:48;4.27;;;0.90;;
68256;SDS011;55069;51.568;4.656;2023-06-26T09:02:14;7.47;;;1.50;;
68256;SDS011;55069;51.568;4.656;2023-06-26T09:04:40;3.70;;;1.10;;
68256;SDS011;55069;51.568;4.656;2023-06-26T09:07:07;2.95;;;1.00;;
68256;SDS011;55069;51.568;4.656;2023-06-26T09:09:33;5.43;;;1.40;;
68256;SDS011;55069;51.568;4.656;2023-06-26T09:11:58;5.70;;;0.77;;
68256;SDS011;55069;51.568;4.656;2023-06-26T09:14:24;5.75;;;1.20;;
68256;SDS011;55069;51.568;4.656;2023-06-26T09:16:50;4.87;;;1.20;;
68256;SDS011;55069;51.568;4.656;2023-06-26T09:19:15;4.78;;;1.17;;
68256;SDS011;55069;51.568;4.656;2023-06-26T09:21:42;2.47;;;1.10;;
68256;SDS011;55069;51.568;4.656;2023-06-26T09:24:08;5.57;;;1.42;;
68256;SDS011;55069;51.568;4.656;2023-06-26T09:26:35;2.55;;;1.05;;
68256;SDS011;55069;51.568;4.656;2023-06-26T09:29:03;5.35;;;1.30;;
68256;SDS011;55069;51.568;4.656;2023-06-26T09:31:30;5.90;;;1.50;;
68256;SDS011;55069;51.568;4.656;2023-06-26T09:33:59;4.40;;;1.13;;
68256;SDS011;55069;51.568;4.656;2023-06-26T09:36:27;3.35;;;1.00;;
68256;SDS011;55069;51.568;4.656;2023-06-26T09:39:00;3.53;;;1.00;;
68256;SDS011;55069;51.568;4.656;2023-06-26T09:41:29;5.07;;;1.30;;
68256;SDS011;55069;51.568;4.656;2023-06-26T09:43:57;4.47;;;1.30;;
68256;SDS011;55069;51.568;4.656;2023-06-26T09:46:28;12.98;;;1.38;;
68256;SDS011;55069;51.568;4.656;2023-06-26T09:48:58;4.35;;;1.45;;
68256;SDS011;55069;51.568;4.656;2023-06-26T09:51:30;7.97;;;1.13;;
68256;SDS011;55069;51.568;4.656;2023-06-26T09:53:57;6.73;;;1.00;;
68256;SDS011;55069;51.568;4.656;2023-06-26T09:56:23;2.78;;;0.90;;
68256;SDS011;55069;51.568;4.656;2023-06-26T09:58:49;4.88;;;0.95;;
68256;SDS011;55069;51.568;4.656;2023-06-26T10:01:15;5.40;;;1.20;;
68256;SDS011;55069;51.568;4.656;2023-06-26T10:03:40;3.17;;;0.73;;
68256;SDS011;55069;51.568;4.656;2023-06-26T10:06:07;2.70;;;1.00;;
68256;SDS011;55069;51.568;4.656;2023-06-26T10:08:34;5.32;;;0.98;;
68256;SDS011;55069;51.568;4.656;2023-06-26T10:11:03;2.17;;;1.02;;
68256;SDS011;55069;51.568;4.656;2023-06-26T10:13:31;5.23;;;1.27;;
68256;SDS011;55069;51.568;4.656;2023-06-26T10:16:00;3.83;;;0.90;;
68256;SDS011;55069;51.568;4.656;2023-06-26T10:18:26;3.35;;;1.00;;
68256;SDS011;55069;51.568;4.656;2023-06-26T10:20:54;4.22;;;0.90;;
68256;SDS011;55069;51.568;4.656;2023-06-26T10:23:23;1.43;;;0.83;;
68256;SDS011;55069;51.568;4.656;2023-06-26T10:25:51;4.55;;;1.10;;
68256;SDS011;55069;51.568;4.656;2023-06-26T10:28:18;4.90;;;1.08;;
68256;SDS011;55069;51.568;4.656;2023-06-26T10:30:46;2.30;;;0.93;;
68256;SDS011;55069;51.568;4.656;2023-06-26T10:33:15;7.95;;;1.42;;
68256;SDS011;55069;51.568;4.656;2023-06-26T10:35:45;2.33;;;1.00;;
68256;SDS011;55069;51.568;4.656;2023-06-26T10:38:11;4.30;;;1.30;;
68256;SDS011;55069;51.568;4.656;2023-06-26T10:40:41;2.95;;;1.30;;
68256;SDS011;55069;51.568;4.656;2023-06-26T10:43:09;5.20;;;1.30;;
68256;SDS011;55069;51.568;4.656;2023-06-26T10:45:36;5.03;;;1.50;;
68256;SDS011;55069;51.568;4.656;2023-06-26T10:48:02;2.57;;;1.40;;
68256;SDS011;55069;51.568;4.656;2023-06-26T10:50:30;3.33;;;1.40;;
68256;SDS011;55069;51.568;4.656;2023-06-26T10:53:16;4.47;;;1.63;;
68256;SDS011;55069;51.568;4.656;2023-06-26T10:56:00;2.70;;;1.63;;
68256;SDS011;55069;51.568;4.656;2023-06-26T11:03:38;4.30;;;1.10;;
68256;SDS011;55069;51.568;4.656;2023-06-26T11:06:08;24.58;;;2.28;;
68256;SDS011;55069;51.568;4.656;2023-06-26T11:08:50;2.53;;;1.10;;
68256;SDS011;55069;51.568;4.656;2023-06-26T11:11:20;6.60;;;1.50;;
68256;SDS011;55069;51.568;4.656;2023-06-26T11:13:46;5.23;;;1.40;;
68256;SDS011;55069;51.568;4.656;2023-06-26T11:16:13;5.82;;;1.50;;
68256;SDS011;55069;51.568;4.656;2023-06-26T11:18:40;5.00;;;1.25;;
68256;SDS011;55069;51.568;4.656;2023-06-26T11:21:06;4.65;;;1.05;;
68256;SDS011;55069;51.568;4.656;2023-06-26T11:23:32;3.30;;;1.48;;
68256;SDS011;55069;51.568;4.656;2023-06-26T11:26:16;3.77;;;0.93;;
68256;SDS011;55069;51.568;4.656;2023-06-26T11:28:52;2.75;;;1.15;;
68256;SDS011;55069;51.568;4.656;2023-06-26T11:31:35;2.60;;;0.80;;
68256;SDS011;55069;51.568;4.656;2023-06-26T11:34:07;4.70;;;1.00;;
68256;SDS011;55069;51.568;4.656;2023-06-26T11:36:37;3.80;;;1.00;;
68256;SDS011;55069;51.568;4.656;2023-06-26T11:39:04;2.57;;;1.17;;
68256;SDS011;55069;51.568;4.656;2023-06-26T11:41:31;4.97;;;1.40;;
68256;SDS011;55069;51.568;4.656;2023-06-26T11:44:04;4.35;;;1.20;;
68256;SDS011;55069;51.568;4.656;2023-06-26T11:46:39;10.35;;;1.40;;
68256;SDS011;55069;51.568;4.656;2023-06-26T11:49:05;1.97;;;1.10;;
68256;SDS011;55069;51.568;4.656;2023-06-26T11:51:32;4.15;;;0.88;;
68256;SDS011;55069;51.568;4.656;2023-06-26T11:54:00;2.13;;;0.75;;
68256;SDS011;55069;51.568;4.656;2023-06-26T11:56:28;3.58;;;1.00;;
68256;SDS011;55069;51.568;4.656;2023-06-26T11:59:03;3.20;;;1.10;;
68256;SDS011;55069;51.568;4.656;2023-06-26T12:01:37;6.18;;;1.00;;
68256;SDS011;55069;51.568;4.656;2023-06-26T12:04:06;3.08;;;0.98;;
68256;SDS011;55069;51.568;4.656;2023-06-26T12:06:36;3.33;;;1.10;;
68256;SDS011;55069;51.568;4.656;2023-06-26T12:09:10;2.75;;;1.00;;
68256;SDS011;55069;51.568;4.656;2023-06-26T12:11:38;3.55;;;1.00;;
68256;SDS011;55069;51.568;4.656;2023-06-26T12:14:06;2.55;;;0.80;;
68256;SDS011;55069;51.568;4.656;2023-06-26T12:16:33;2.30;;;1.10;;
68256;SDS011;55069;51.568;4.656;2023-06-26T12:18:59;2.85;;;0.70;;
68256;SDS011;55069;51.568;4.656;2023-06-26T12:21:33;1.67;;;0.75;;
68256;SDS011;55069;51.568;4.656;2023-06-26T12:24:12;3.50;;;0.93;;
68256;SDS011;55069;51.568;4.656;2023-06-26T12:26:43;2.70;;;1.25;;
68256;SDS011;55069;51.568;4.656;2023-06-26T12:29:11;4.03;;;1.20;;
68256;SDS011;55069;51.568;4.656;2023-06-26T12:31:42;3.22;;;0.80;;
68256;SDS011;55069;51.568;4.656;2023-06-26T12:34:09;2.53;;;1.30;;
68256;SDS011;55069;51.568;4.656;2023-06-26T12:36:49;5.03;;;1.23;;
68256;SDS011;55069;51.568;4.656;2023-06-26T12:39:17;5.75;;;1.00;;
68256;SDS011;55069;51.568;4.656;2023-06-26T12:41:54;2.65;;;0.95;;
68256;SDS011;55069;51.568;4.656;2023-06-26T12:44:27;1.95;;;1.10;;
68256;SDS011;55069;51.568;4.656;2023-06-26T12:46:58;6.70;;;1.00;;
68256;SDS011;55069;51.568;4.656;2023-06-26T12:49:31;3.88;;;0.80;;
68256;SDS011;55069;51.568;4.656;2023-06-26T12:51:59;3.13;;;0.93;;
68256;SDS011;55069;51.568;4.656;2023-06-26T12:54:26;4.10;;;1.23;;
68256;SDS011;55069;51.568;4.656;2023-06-26T12:56:53;2.83;;;1.00;;
68256;SDS011;55069;51.568;4.656;2023-06-26T12:59:19;2.90;;;1.02;;
68256;SDS011;55069;51.568;4.656;2023-06-26T13:01:45;3.08;;;1.30;;
68256;SDS011;55069;51.568;4.656;2023-06-26T13:04:11;5.87;;;1.20;;
68256;SDS011;55069;51.568;4.656;2023-06-26T13:06:36;3.35;;;1.10;;
68256;SDS011;55069;51.568;4.656;2023-06-26T13:09:02;3.57;;;1.00;;
68256;SDS011;55069;51.568;4.656;2023-06-26T13:11:31;5.53;;;1.40;;
68256;SDS011;55069;51.568;4.656;2023-06-26T13:13:58;4.82;;;0.88;;
68256;SDS011;55069;51.568;4.656;2023-06-26T13:16:24;2.08;;;1.00;;
68256;SDS011;55069;51.568;4.656;2023-06-26T13:18:50;5.32;;;1.10;;
68256;SDS011;55069;51.568;4.656;2023-06-26T13:21:16;2.55;;;0.77;;
68256;SDS011;55069;51.568;4.656;2023-06-26T13:23:43;2.88;;;0.70;;
68256;SDS011;55069;51.568;4.656;2023-06-26T13:26:09;2.08;;;0.70;;
68256;SDS011;55069;51.568;4.656;2023-06-26T13:28:36;3.17;;;0.80;;
68256;SDS011;55069;51.568;4.656;2023-06-26T13:31:02;3.17;;;1.20;;
68256;SDS011;55069;51.568;4.656;2023-06-26T13:33:28;2.92;;;1.10;;
68256;SDS011;55069;51.568;4.656;2023-06-26T13:35:54;3.45;;;0.88;;
68256;SDS011;55069;51.568;4.656;2023-06-26T13:38:20;3.63;;;1.07;;
68256;SDS011;55069;51.568;4.656;2023-06-26T13:40:55;3.17;;;0.85;;
68256;SDS011;55069;51.568;4.656;2023-06-26T13:43:26;3.72;;;0.90;;
68256;SDS011;55069;51.568;4.656;2023-06-26T13:45:52;2.40;;;0.82;;
68256;SDS011;55069;51.568;4.656;2023-06-26T13:48:18;5.00;;;1.00;;
68256;SDS011;55069;51.568;4.656;2023-06-26T13:50:44;3.60;;;0.90;;
68256;SDS011;55069;51.568;4.656;2023-06-26T13:53:10;1.98;;;0.80;;
68256;SDS011;55069;51.568;4.656;2023-06-26T13:55:37;4.60;;;1.13;;
68256;SDS011;55069;51.568;4.656;2023-06-26T13:58:06;2.83;;;0.88;;
68256;SDS011;55069;51.568;4.656;2023-06-26T14:00:33;3.97;;;0.90;;
68256;SDS011;55069;51.568;4.656;2023-06-26T14:02:59;2.83;;;0.90;;
68256;SDS011;55069;51.568;4.656;2023-06-26T14:05:26;2.67;;;1.00;;
68256;SDS011;55069;51.568;4.656;2023-06-26T14:07:52;2.08;;;0.88;;
68256;SDS011;55069;51.568;4.656;2023-06-26T14:10:19;3.17;;;0.90;;
68256;SDS011;55069;51.568;4.656;2023-06-26T14:12:45;2.50;;;0.90;;
68256;SDS011;55069;51.568;4.656;2023-06-26T14:15:11;4.10;;;1.00;;
68256;SDS011;55069;51.568;4.656;2023-06-26T14:17:37;3.58;;;1.00;;
68256;SDS011;55069;51.568;4.656;2023-06-26T14:20:05;3.80;;;0.80;;
68256;SDS011;55069;51.568;4.656;2023-06-26T14:22:35;2.55;;;1.10;;
68256;SDS011;55069;51.568;4.656;2023-06-26T14:25:02;4.40;;;0.80;;
68256;SDS011;55069;51.568;4.656;2023-06-26T14:27:28;3.25;;;1.20;;
68256;SDS011;55069;51.568;4.656;2023-06-26T14:29:53;4.23;;;1.13;;
68256;SDS011;55069;51.568;4.656;2023-06-26T14:32:19;3.90;;;1.20;;
68256;SDS011;55069;51.568;4.656;2023-06-26T14:34:44;5.28;;;1.40;;
68256;SDS011;55069;51.568;4.656;2023-06-26T14:37:10;3.03;;;1.23;;
68256;SDS011;55069;51.568;4.656;2023-06-26T14:39:36;3.95;;;1.08;;
68256;SDS011;55069;51.568;4.656;2023-06-26T14:42:04;1.77;;;1.03;;
68256;SDS011;55069;51.568;4.656;2023-06-26T14:44:30;3.03;;;1.15;;
68256;SDS011;55069;51.568;4.656;2023-06-26T14:46:56;2.65;;;0.90;;
68256;SDS011;55069;51.568;4.656;2023-06-26T14:49:21;3.10;;;1.10;;
68256;SDS011;55069;51.568;4.656;2023-06-26T14:51:47;2.22;;;1.33;;
68256;SDS011;55069;51.568;4.656;2023-06-26T14:54:13;2.80;;;1.23;;
68256;SDS011;55069;51.568;4.656;2023-06-26T14:56:38;4.60;;;1.30;;
68256;SDS011;55069;51.568;4.656;2023-06-26T14:59:04;2.92;;;0.98;;
68256;SDS011;55069;51.568;4.656;2023-06-26T15:01:32;2.22;;;1.00;;
68256;SDS011;55069;51.568;4.656;2023-06-26T15:03:59;3.40;;;0.90;;